createdAt,value
2018-04-14T00:00:31.249Z,101215.80
2018-04-14T00:02:57.910Z,101217.86
2018-04-14T00:05:24.547Z,101216.82
2018-04-14T00:07:51.302Z,101214.44
2018-04-14T00:10:17.953Z,101223.13
2018-04-14T00:12:44.788Z,101217.67
2018-04-14T00:15:11.471Z,101216.17
2018-04-14T00:17:38.264Z,101226.13
2018-04-14T00:20:04.913Z,101225.48
2018-04-14T00:22:31.571Z,101231.02
2018-04-14T00:24:59.085Z,101233.47
2018-04-14T00:27:25.724Z,101233.87
2018-04-14T00:29:52.379Z,101233.47
2018-04-14T00:32:19.019Z,101235.21
2018-04-14T00:34:45.903Z,101241.34
2018-04-14T00:37:12.562Z,101235.27
2018-04-14T00:39:39.255Z,101237.70
2018-04-14T00:42:05.923Z,101238.38
2018-04-14T00:44:32.573Z,101246.69
2018-04-14T00:46:59.262Z,101246.67
2018-04-14T00:49:25.903Z,101247.33
2018-04-14T00:51:52.675Z,101253.34
2018-04-14T00:54:19.500Z,101255.77
2018-04-14T00:56:47.045Z,101256.11
2018-04-14T00:59:13.760Z,101262.64
2018-04-14T01:01:40.395Z,101265.87
2018-04-14T01:04:07.040Z,101268.38
2018-04-14T01:06:33.660Z,101266.70
2018-04-14T01:09:00.336Z,101268.97
2018-04-14T01:11:26.984Z,101272.78
2018-04-14T01:13:53.678Z,101264.63
2018-04-14T01:16:20.461Z,101267.73
2018-04-14T01:18:47.086Z,101265.69
2018-04-14T01:21:13.885Z,101271.44
2018-04-14T01:23:40.592Z,101266.84
2018-04-14T01:26:07.997Z,101273.84
2018-04-14T01:28:34.638Z,101270.52
2018-04-14T01:31:01.311Z,101265.93
2018-04-14T01:33:28.067Z,101270.30
2018-04-14T01:35:54.764Z,101270.92
2018-04-14T01:38:21.424Z,101277.09
2018-04-14T01:40:48.105Z,101278.26
2018-04-14T01:43:14.778Z,101273.11
2018-04-14T01:45:41.403Z,101274.34
2018-04-14T01:48:08.033Z,101280.09
2018-04-14T01:50:34.820Z,101273.05
2018-04-14T01:53:01.469Z,101274.78
2018-04-14T01:55:28.416Z,101274.47
2018-04-14T01:57:55.243Z,101272.89
2018-04-14T02:00:21.885Z,101274.16
2018-04-14T02:02:48.539Z,101282.14
2018-04-14T02:05:15.255Z,101279.70
2018-04-14T02:07:41.922Z,101279.11
2018-04-14T02:10:08.560Z,101283.99
2018-04-14T02:12:36.039Z,101272.15
2018-04-14T02:15:02.696Z,101274.65
2018-04-14T02:17:29.296Z,101276.47
2018-04-14T02:19:56.689Z,101283.27
2018-04-14T02:22:23.390Z,101282.67
2018-04-14T02:24:50.007Z,101277.76
2018-04-14T02:27:17.384Z,101283.62
2018-04-14T02:29:44.796Z,101281.52
2018-04-14T02:32:12.178Z,101284.81
2018-04-14T02:34:38.828Z,101284.61
2018-04-14T02:37:06.196Z,101282.72
2018-04-14T02:39:33.598Z,101282.83
2018-04-14T02:42:00.260Z,101286.10
2018-04-14T02:44:26.926Z,101284.54
2018-04-14T02:46:54.553Z,101294.23
2018-04-14T02:49:21.180Z,101299.75
2018-04-14T02:51:47.824Z,101295.23
2018-04-14T02:54:14.488Z,101295.95
2018-04-14T02:56:41.124Z,101292.74
2018-04-14T02:59:07.840Z,101292.35
2018-04-14T03:01:34.489Z,101291.06
2018-04-14T03:04:01.185Z,101294.22
2018-04-14T03:06:27.970Z,101297.61
2018-04-14T03:08:54.619Z,101302.72
2018-04-14T03:11:21.243Z,101300.38
2018-04-14T03:13:48.119Z,101302.40
2018-04-14T03:16:15.519Z,101307.77
2018-04-14T03:18:42.133Z,101305.17
2018-04-14T03:21:08.770Z,101304.72
2018-04-14T03:23:35.430Z,101303.95
2018-04-14T03:26:02.108Z,101301.16
2018-04-14T03:28:28.807Z,101307.56
2018-04-14T03:30:55.417Z,101315.17
2018-04-14T03:33:22.789Z,101327.63
2018-04-14T03:35:49.615Z,101317.55
2018-04-14T03:38:16.994Z,101326.45
2018-04-14T03:40:43.678Z,101330.17
2018-04-14T03:43:10.314Z,101323.66
2018-04-14T03:45:36.991Z,101321.99
2018-04-14T03:48:04.516Z,101332.44
2018-04-14T03:50:31.135Z,101338.02
2018-04-14T03:52:57.764Z,101344.72
2018-04-14T03:55:24.542Z,101338.30
2018-04-14T03:57:51.160Z,101338.61
2018-04-14T04:00:18.006Z,101337.37
2018-04-14T04:02:44.636Z,101345.00
2018-04-14T04:05:11.332Z,101355.05
2018-04-14T04:07:38.777Z,101355.92
2018-04-14T04:10:06.138Z,101360.88
2018-04-14T04:12:33.525Z,101360.45
2018-04-14T04:15:00.176Z,101367.55
2018-04-14T04:17:26.822Z,101372.87
2018-04-14T04:20:11.844Z,101371.59
2018-04-14T04:22:57.733Z,101377.11
2018-04-14T04:25:40.411Z,101375.55
2018-04-14T04:28:07.063Z,101383.05
2018-04-14T04:30:33.825Z,101384.99
2018-04-14T04:33:01.291Z,101387.64
2018-04-14T04:35:27.921Z,101383.34
2018-04-14T04:37:55.323Z,101375.15
2018-04-14T04:40:21.943Z,101381.23
2018-04-14T04:42:48.687Z,101391.41
2018-04-14T04:45:15.327Z,101405.05
2018-04-14T04:47:42.061Z,101400.64
2018-04-14T04:50:08.690Z,101408.04
2018-04-14T04:52:35.358Z,101407.86
2018-04-14T04:55:02.143Z,101409.86
2018-04-14T04:57:29.543Z,101414.98
2018-04-14T04:59:56.174Z,101426.55
2018-04-14T05:02:22.975Z,101428.67
2018-04-14T05:04:49.697Z,101438.22
2018-04-14T05:07:16.480Z,101428.94
2018-04-14T05:09:43.311Z,101427.89
2018-04-14T05:12:10.663Z,101426.44
2018-04-14T05:14:38.105Z,101424.69
2018-04-14T05:17:04.724Z,101423.46
2018-04-14T05:19:31.380Z,101424.44
2018-04-14T05:21:58.007Z,101425.46
2018-04-14T05:24:24.811Z,101434.16
2018-04-14T05:26:51.460Z,101439.91
2018-04-14T05:29:18.258Z,101445.62
2018-04-14T05:31:45.826Z,101441.67
2018-04-14T05:34:13.381Z,101447.27
2018-04-14T05:36:40.806Z,101454.23
2018-04-14T05:39:09.109Z,101449.52
2018-04-14T05:41:36.573Z,101451.21
2018-04-14T05:44:04.051Z,101453.41
2018-04-14T05:46:30.819Z,101450.17
2018-04-14T05:48:57.473Z,101460.48
2018-04-14T05:51:24.144Z,101467.84
2018-04-14T05:53:51.543Z,101463.72
2018-04-14T05:56:18.166Z,101467.20
2018-04-14T05:58:44.993Z,101468.36
2018-04-14T06:01:12.459Z,101462.19
2018-04-14T06:03:39.125Z,101461.06
2018-04-14T06:06:05.912Z,101476.20
2018-04-14T06:08:33.297Z,101476.25
2018-04-14T06:10:59.951Z,101472.62
2018-04-14T06:13:26.629Z,101475.09
2018-04-14T06:15:53.269Z,101472.48
2018-04-14T06:18:21.848Z,101474.63
2018-04-14T06:20:54.733Z,101482.53
2018-04-14T06:23:22.161Z,101485.26
2018-04-14T06:25:48.842Z,101493.95
2018-04-14T06:28:16.278Z,101499.52
2018-04-14T06:30:42.997Z,101505.34
2018-04-14T06:33:09.646Z,101509.19
2018-04-14T06:35:36.389Z,101512.85
2018-04-14T06:38:03.063Z,101500.64
2018-04-14T06:40:30.495Z,101501.86
2018-04-14T06:42:57.126Z,101511.45
2018-04-14T06:45:23.941Z,101510.87
2018-04-14T06:47:50.592Z,101519.80
2018-04-14T06:50:17.493Z,101520.91
2018-04-14T06:52:44.880Z,101518.34
2018-04-14T06:55:11.500Z,101524.26
2018-04-14T06:57:38.132Z,101525.49
2018-04-14T07:00:05.543Z,101533.45
2018-04-14T07:02:32.244Z,101530.62
2018-04-14T07:04:58.884Z,101536.03
2018-04-14T07:07:25.528Z,101541.58
2018-04-14T07:09:52.207Z,101545.03
2018-04-14T07:12:19.016Z,101550.12
2018-04-14T07:14:45.656Z,101554.84
2018-04-14T07:17:12.528Z,101553.33
2018-04-14T07:19:39.173Z,101559.61
2018-04-14T07:22:05.883Z,101565.91
2018-04-14T07:24:32.527Z,101579.98
2018-04-14T07:26:59.254Z,101571.20
2018-04-14T07:29:26.010Z,101576.84
2018-04-14T07:31:52.664Z,101574.39
2018-04-14T07:34:19.292Z,101580.05
2018-04-14T07:36:46.096Z,101576.71
2018-04-14T07:39:13.884Z,101576.72
2018-04-14T07:41:40.509Z,101580.82
2018-04-14T07:44:07.301Z,101581.73
2018-04-14T07:46:33.989Z,101586.20
2018-04-14T07:49:00.664Z,101586.19
2018-04-14T07:51:27.421Z,101587.07
2018-04-14T07:53:54.088Z,101594.17
2018-04-14T07:56:21.473Z,101598.69
2018-04-14T07:58:48.199Z,101601.98
2018-04-14T08:01:14.957Z,101601.63
2018-04-14T08:03:41.593Z,101611.91
2018-04-14T08:06:08.274Z,101612.05
2018-04-14T08:08:34.995Z,101616.52
2018-04-14T08:11:01.685Z,101623.80
2018-04-14T08:13:29.206Z,101620.51
2018-04-14T08:15:55.900Z,101610.34
2018-04-14T08:18:22.569Z,101610.59
2018-04-14T08:20:49.189Z,101606.98
2018-04-14T08:23:15.948Z,101608.88
2018-04-14T08:25:42.605Z,101609.83
2018-04-14T08:28:10.719Z,101614.18
2018-04-14T08:30:38.172Z,101615.40
2018-04-14T08:33:05.575Z,101611.30
2018-04-14T08:35:32.262Z,101622.89
2018-04-14T08:37:59.670Z,101621.46
2018-04-14T08:40:26.357Z,101628.64
2018-04-14T08:42:53.934Z,101623.78
2018-04-14T08:45:20.870Z,101625.34
2018-04-14T08:47:47.561Z,101628.64
2018-04-14T08:50:14.357Z,101625.72
2018-04-14T08:52:41.009Z,101628.81
2018-04-14T08:55:07.671Z,101634.68
2018-04-14T08:57:34.437Z,101630.31
2018-04-14T09:00:01.095Z,101638.13
2018-04-14T09:02:28.458Z,101639.20
2018-04-14T09:04:55.855Z,101637.39
2018-04-14T09:07:22.572Z,101642.58
2018-04-14T09:09:49.237Z,101645.42
2018-04-14T09:12:15.872Z,101636.57
2018-04-14T09:14:42.622Z,101640.03
2018-04-14T09:17:09.275Z,101644.77
2018-04-14T09:19:36.026Z,101638.31
2018-04-14T09:22:02.790Z,101642.67
2018-04-14T09:24:30.181Z,101645.64
2018-04-14T09:26:56.828Z,101645.02
2018-04-14T09:29:23.497Z,101646.21
2018-04-14T09:31:50.907Z,101642.56
2018-04-14T09:34:17.599Z,101644.63
2018-04-14T09:36:44.249Z,101645.80
2018-04-14T09:39:11.700Z,101649.91
2018-04-14T09:41:38.347Z,101655.01
2018-04-14T09:44:05.848Z,101651.05
2018-04-14T09:46:32.498Z,101648.80
2018-04-14T09:48:59.166Z,101644.91
2018-04-14T09:51:25.864Z,101649.83
2018-04-14T09:53:52.524Z,101647.57
2018-04-14T09:56:19.164Z,101640.72
2018-04-14T09:58:45.841Z,101644.07
2018-04-14T10:01:19.427Z,101640.27
2018-04-14T10:03:50.126Z,101643.19
2018-04-14T10:06:16.768Z,101642.30
2018-04-14T10:08:43.529Z,101642.91
2018-04-14T10:11:10.211Z,101646.21
2018-04-14T10:13:37.602Z,101637.34
2018-04-14T10:16:04.328Z,101641.88
2018-04-14T10:18:31.970Z,101645.04
2018-04-14T10:21:09.822Z,101644.93
2018-04-14T10:23:37.251Z,101645.72
2018-04-14T10:26:04.712Z,101634.39
2018-04-14T10:28:32.136Z,101628.33
2018-04-14T10:30:58.796Z,101628.08
2018-04-14T10:33:25.474Z,101634.12
2018-04-14T10:35:52.218Z,101637.20
2018-04-14T10:38:18.845Z,101639.80
2018-04-14T10:40:45.668Z,101634.62
2018-04-14T10:43:13.455Z,101640.23
2018-04-14T10:45:40.100Z,101643.31
2018-04-14T10:48:06.743Z,101646.38
2018-04-14T10:50:33.399Z,101639.14
2018-04-14T10:53:00.055Z,101638.44
2018-04-14T10:55:27.611Z,101631.70
2018-04-14T10:57:55.053Z,101634.55
2018-04-14T11:00:21.683Z,101634.75
2018-04-14T11:02:48.372Z,101629.50
2018-04-14T11:05:15.020Z,101628.41
2018-04-14T11:07:41.761Z,101632.90
2018-04-14T11:10:08.432Z,101628.19
2018-04-14T11:12:35.070Z,101636.09
2018-04-14T11:15:01.725Z,101632.35
2018-04-14T11:17:28.441Z,101629.95
2018-04-14T11:19:55.154Z,101624.79
2018-04-14T11:22:21.836Z,101622.95
2018-04-14T11:24:48.480Z,101623.27
2018-04-14T11:27:15.235Z,101631.74
2018-04-14T11:29:42.839Z,101633.33
2018-04-14T11:32:10.213Z,101626.48
2018-04-14T11:34:36.910Z,101619.30
2018-04-14T11:37:03.618Z,101624.70
2018-04-14T11:39:30.238Z,101622.66
2018-04-14T11:41:56.875Z,101622.48
2018-04-14T11:44:23.828Z,101625.42
2018-04-14T11:46:50.478Z,101625.45
2018-04-14T11:49:17.169Z,101626.64
2018-04-14T11:51:43.850Z,101623.63
2018-04-14T11:54:11.311Z,101626.73
2018-04-14T11:56:38.141Z,101625.95
2018-04-14T11:59:04.861Z,101629.14
2018-04-14T12:01:31.795Z,101630.47
2018-04-14T12:03:58.504Z,101624.38
2018-04-14T12:06:26.076Z,101631.55
2018-04-14T12:08:52.756Z,101636.08
2018-04-14T12:11:19.417Z,101638.67
2018-04-14T12:13:46.985Z,101640.13
2018-04-14T12:16:13.668Z,101632.95
2018-04-14T12:18:40.466Z,101629.16
2018-04-14T12:21:07.103Z,101631.62
2018-04-14T12:23:33.797Z,101634.89
2018-04-14T12:26:00.487Z,101632.92
2018-04-14T12:28:27.240Z,101631.25
2018-04-14T12:30:54.802Z,101632.80
2018-04-14T12:33:21.427Z,101627.88
2018-04-14T12:35:48.264Z,101623.42
2018-04-14T12:38:14.957Z,101628.05
2018-04-14T12:40:41.657Z,101626.08
2018-04-14T12:43:08.369Z,101627.70
2018-04-14T12:45:35.008Z,101619.97
2018-04-14T12:48:01.756Z,101623.61
2018-04-14T12:50:28.442Z,101615.73
2018-04-14T12:52:55.930Z,101614.77
2018-04-14T12:55:22.571Z,101616.61
2018-04-14T12:57:49.353Z,101623.37
2018-04-14T13:00:16.971Z,101617.44
2018-04-14T13:02:44.526Z,101614.89
2018-04-14T13:05:11.220Z,101615.38
2018-04-14T13:07:37.875Z,101616.48
2018-04-14T13:10:04.490Z,101623.78
2018-04-14T13:12:31.497Z,101619.50
2018-04-14T13:14:58.123Z,101623.79
2018-04-14T13:17:24.822Z,101621.66
2018-04-14T13:19:51.440Z,101613.73
2018-04-14T13:22:18.851Z,101618.05
2018-04-14T13:24:45.546Z,101610.58
2018-04-14T13:27:13.159Z,101603.47
2018-04-14T13:29:39.997Z,101605.22
2018-04-14T13:32:06.626Z,101600.93
2018-04-14T13:34:33.291Z,101611.41
2018-04-14T13:36:59.996Z,101607.30
2018-04-14T13:39:26.726Z,101604.38
2018-04-14T13:41:53.425Z,101602.20
2018-04-14T13:44:20.078Z,101601.66
2018-04-14T13:46:47.555Z,101601.90
2018-04-14T13:49:14.205Z,101603.51
2018-04-14T13:51:40.828Z,101596.13
2018-04-14T13:54:07.521Z,101592.10
2018-04-14T13:56:34.232Z,101590.63
2018-04-14T13:59:00.860Z,101588.03
2018-04-14T14:01:27.537Z,101594.62
2018-04-14T14:03:54.305Z,101588.12
2018-04-14T14:06:21.694Z,101581.83
2018-04-14T14:08:48.368Z,101581.95
2018-04-14T14:11:15.204Z,101573.29
2018-04-14T14:13:41.838Z,101562.58
2018-04-14T14:16:08.493Z,101560.91
2018-04-14T14:18:35.253Z,101548.87
2018-04-14T14:21:01.956Z,101547.27
2018-04-14T14:23:28.648Z,101554.95
2018-04-14T14:25:56.509Z,101556.31
2018-04-14T14:28:23.910Z,101552.72
2018-04-14T14:30:50.575Z,101549.91
2018-04-14T14:33:17.252Z,101557.25
2018-04-14T14:35:44.611Z,101547.53
2018-04-14T14:38:11.254Z,101542.73
2018-04-14T14:40:37.966Z,101535.00
2018-04-14T14:43:05.389Z,101536.89
2018-04-14T14:45:32.026Z,101528.84
2018-04-14T14:47:58.881Z,101533.78
2018-04-14T14:50:27.503Z,101526.74
2018-04-14T14:52:54.143Z,101522.66
2018-04-14T14:55:21.569Z,101519.02
2018-04-14T14:57:48.244Z,101512.09
2018-04-14T15:00:15.710Z,101504.59
2018-04-14T15:02:42.408Z,101505.02
2018-04-14T15:05:09.199Z,101498.09
2018-04-14T15:07:35.878Z,101494.37
2018-04-14T15:10:02.547Z,101498.95
2018-04-14T15:12:29.246Z,101494.59
2018-04-14T15:14:55.906Z,101498.98
2018-04-14T15:17:22.553Z,101495.03
2018-04-14T15:19:49.290Z,101493.74
2018-04-14T15:22:17.000Z,101492.17
2018-04-14T15:24:43.670Z,101493.14
2018-04-14T15:27:10.337Z,101493.03
2018-04-14T15:29:37.012Z,101493.25
2018-04-14T15:32:03.677Z,101482.77
2018-04-14T15:34:30.493Z,101484.61
2018-04-14T15:36:57.280Z,101486.52
2018-04-14T15:39:23.980Z,101484.84
2018-04-14T15:41:50.596Z,101481.28
2018-04-14T15:44:18.062Z,101475.47
2018-04-14T15:46:44.724Z,101480.71
2018-04-14T15:49:11.465Z,101482.05
2018-04-14T15:51:38.268Z,101480.23
2018-04-14T15:54:05.857Z,101480.86
2018-04-14T15:56:32.531Z,101482.48
2018-04-14T15:58:59.201Z,101481.79
2018-04-14T16:01:26.614Z,101491.65
2018-04-14T16:03:53.583Z,101491.52
2018-04-14T16:06:20.212Z,101493.67
2018-04-14T16:08:46.907Z,101495.58
2018-04-14T16:11:13.590Z,101491.53
2018-04-14T16:13:40.273Z,101483.75
2018-04-14T16:16:06.938Z,101493.61
2018-04-14T16:18:33.672Z,101492.41
2018-04-14T16:21:00.341Z,101500.97
2018-04-14T16:23:27.043Z,101504.39
2018-04-14T16:25:53.716Z,101502.54
2018-04-14T16:28:20.489Z,101501.92
2018-04-14T16:30:47.141Z,101511.52
2018-04-14T16:33:14.567Z,101499.70
2018-04-14T16:35:41.237Z,101495.66
2018-04-14T16:38:08.741Z,101486.51
2018-04-14T16:40:35.390Z,101488.25
2018-04-14T16:43:02.019Z,101487.92
2018-04-14T16:45:28.724Z,101492.55
2018-04-14T16:47:56.131Z,101491.10
2018-04-14T16:50:22.767Z,101491.10
2018-04-14T16:52:49.417Z,101495.08
2018-04-14T16:55:16.181Z,101497.48
2018-04-14T16:57:42.881Z,101498.04
2018-04-14T17:00:09.521Z,101499.71
2018-04-14T17:02:36.204Z,101499.45
2018-04-14T17:05:03.603Z,101498.52
2018-04-14T17:07:30.344Z,101493.03
2018-04-14T17:09:56.994Z,101491.16
2018-04-14T17:12:23.645Z,101484.31
2018-04-14T17:14:50.320Z,101483.14
2018-04-14T17:17:16.952Z,101481.22
2018-04-14T17:19:44.479Z,101484.95
2018-04-14T17:22:11.120Z,101485.20
2018-04-14T17:24:37.776Z,101481.22
2018-04-14T17:27:04.421Z,101474.88
2018-04-14T17:29:31.069Z,101482.17
2018-04-14T17:31:58.537Z,101475.91
2018-04-14T17:34:26.098Z,101474.78
2018-04-14T17:36:53.515Z,101486.99
2018-04-14T17:39:20.153Z,101483.14
2018-04-14T17:41:46.879Z,101483.59
2018-04-14T17:44:13.500Z,101482.64
2018-04-14T17:46:40.149Z,101480.43
2018-04-14T17:49:06.856Z,101486.08
2018-04-14T17:51:34.280Z,101478.75
2018-04-14T17:54:02.420Z,101482.41
2018-04-14T17:56:29.197Z,101484.47
2018-04-14T17:58:55.948Z,101481.16
2018-04-14T18:01:22.645Z,101480.94
2018-04-14T18:03:49.277Z,101486.77
2018-04-14T18:06:15.916Z,101486.98
2018-04-14T18:08:42.664Z,101487.42
2018-04-14T18:11:09.399Z,101485.50
2018-04-14T18:13:36.030Z,101491.80
2018-04-14T18:16:02.719Z,101485.42
2018-04-14T18:18:29.722Z,101488.91
2018-04-14T18:20:56.395Z,101498.73
2018-04-14T18:23:23.205Z,101493.03
2018-04-14T18:25:50.018Z,101491.00
2018-04-14T18:28:16.683Z,101490.16
2018-04-14T18:30:43.408Z,101487.95
2018-04-14T18:33:10.056Z,101481.28
2018-04-14T18:35:36.701Z,101486.86
2018-04-14T18:38:03.618Z,101488.83
2018-04-14T18:40:30.321Z,101493.36
2018-04-14T18:42:56.988Z,101496.20
2018-04-14T18:45:24.504Z,101495.80
2018-04-14T18:47:51.176Z,101500.01
2018-04-14T18:50:18.594Z,101495.16
2018-04-14T18:52:45.298Z,101501.05
2018-04-14T18:55:11.941Z,101505.27
2018-04-14T18:57:38.765Z,101510.78
2018-04-14T19:00:06.278Z,101502.48
2018-04-14T19:02:32.928Z,101498.36
2018-04-14T19:04:59.654Z,101504.59
2018-04-14T19:07:26.368Z,101502.93
2018-04-14T19:09:53.028Z,101498.49
2018-04-14T19:12:19.701Z,101501.59
2018-04-14T19:14:47.209Z,101498.99
2018-04-14T19:17:13.897Z,101506.08
2018-04-14T19:19:40.592Z,101512.27
2018-04-14T19:22:07.272Z,101509.16
2018-04-14T19:24:34.002Z,101511.27
2018-04-14T19:27:00.682Z,101510.86
2018-04-14T19:29:28.176Z,101514.84
2018-04-14T19:31:54.852Z,101513.86
2018-04-14T19:34:21.601Z,101507.31
2018-04-14T19:36:48.302Z,101512.20
2018-04-14T19:39:15.119Z,101505.07
2018-04-14T19:41:41.786Z,101497.80
2018-04-14T19:44:08.621Z,101499.58
2018-04-14T19:46:35.321Z,101500.22
2018-04-14T19:49:02.721Z,101505.42
2018-04-14T19:51:29.461Z,101495.22
2018-04-14T19:53:56.192Z,101489.93
2018-04-14T19:56:22.878Z,101496.42
2018-04-14T19:58:49.532Z,101506.36
2018-04-14T20:01:17.006Z,101501.36
2018-04-14T20:03:43.694Z,101500.21
2018-04-14T20:06:10.358Z,101500.67
2018-04-14T20:08:37.746Z,101498.44
2018-04-14T20:11:04.458Z,101496.34
2018-04-14T20:13:31.912Z,101488.27
2018-04-14T20:15:59.747Z,101489.12
2018-04-14T20:18:26.471Z,101494.13
2018-04-14T20:20:53.122Z,101487.16
2018-04-14T20:23:19.861Z,101478.73
2018-04-14T20:25:46.539Z,101476.90
2018-04-14T20:28:13.971Z,101488.55
2018-04-14T20:30:40.635Z,101489.59
2018-04-14T20:33:07.301Z,101489.53
2018-04-14T20:35:34.169Z,101486.61
2018-04-14T20:38:00.948Z,101493.58
2018-04-14T20:40:27.625Z,101492.48
2018-04-14T20:42:54.285Z,101493.73
2018-04-14T20:45:20.946Z,101488.59
2018-04-14T20:47:47.826Z,101490.16
2018-04-14T20:50:15.498Z,101492.92
2018-04-14T20:52:42.951Z,101487.98
2018-04-14T20:55:09.615Z,101489.22
2018-04-14T20:57:36.993Z,101486.20
2018-04-14T21:00:03.786Z,101485.28
2018-04-14T21:02:30.535Z,101481.27
2018-04-14T21:04:57.200Z,101479.98
2018-04-14T21:07:23.977Z,101486.15
2018-04-14T21:09:50.620Z,101486.31
2018-04-14T21:12:18.061Z,101475.15
2018-04-14T21:14:44.719Z,101476.91
2018-04-14T21:17:11.328Z,101476.95
2018-04-14T21:19:38.009Z,101469.70
2018-04-14T21:22:05.488Z,101464.37
2018-04-14T21:24:32.216Z,101469.80
2018-04-14T21:26:59.694Z,101465.98
2018-04-14T21:29:26.385Z,101466.42
2018-04-14T21:31:53.054Z,101464.14
2018-04-14T21:34:19.693Z,101464.28
2018-04-14T21:36:46.351Z,101453.09
2018-04-14T21:39:13.027Z,101450.72
2018-04-14T21:41:39.676Z,101452.77
2018-04-14T21:44:06.625Z,101444.81
2018-04-14T21:46:33.430Z,101453.00
2018-04-14T21:49:00.159Z,101450.73
2018-04-14T21:51:26.878Z,101443.20
2018-04-14T21:53:54.374Z,101438.64
2018-04-14T21:56:21.329Z,101435.66
2018-04-14T21:58:48.816Z,101431.52
2018-04-14T22:01:15.514Z,101431.69
2018-04-14T22:03:42.149Z,101429.87
2018-04-14T22:06:08.779Z,101426.13
2018-04-14T22:08:35.463Z,101418.50
2018-04-14T22:11:04.381Z,101413.54
2018-04-14T22:13:31.224Z,101413.23
2018-04-14T22:15:58.058Z,101407.27
2018-04-14T22:18:24.803Z,101411.77
2018-04-14T22:20:52.546Z,101404.78
2018-04-14T22:23:21.804Z,101404.25
2018-04-14T22:25:48.920Z,101403.71
2018-04-14T22:28:16.255Z,101403.88
2018-04-14T22:30:43.705Z,101400.76
2018-04-14T22:33:11.315Z,101395.89
2018-04-14T22:35:38.731Z,101390.86
2018-04-14T22:38:05.724Z,101385.56
2018-04-14T22:40:32.447Z,101390.29
2018-04-14T22:43:00.070Z,101385.39
2018-04-14T22:45:27.856Z,101379.59
2018-04-14T22:47:54.661Z,101379.69
2018-04-14T22:50:22.055Z,101375.32
2018-04-14T22:52:48.780Z,101382.06
2018-04-14T22:55:16.577Z,101376.67
2018-04-14T22:57:43.303Z,101381.23
2018-04-14T23:00:09.970Z,101387.97
2018-04-14T23:02:36.685Z,101388.67
2018-04-14T23:05:03.326Z,101387.77
2018-04-14T23:07:29.997Z,101384.23
2018-04-14T23:09:56.715Z,101391.76
2018-04-14T23:12:23.373Z,101389.37
2018-04-14T23:14:50.158Z,101387.39
2018-04-14T23:17:17.630Z,101405.68
2018-04-14T23:19:44.503Z,101467.44
2018-04-14T23:22:14.412Z,101453.91
2018-04-14T23:24:41.094Z,101449.48
2018-04-14T23:27:07.782Z,101444.85
2018-04-14T23:29:35.380Z,101455.86
2018-04-14T23:32:02.069Z,101452.50
2018-04-14T23:34:28.804Z,101448.67
2018-04-14T23:36:56.056Z,101441.66
2018-04-14T23:39:22.693Z,101449.48
2018-04-14T23:41:49.337Z,101451.56
2018-04-14T23:44:15.948Z,101452.91
2018-04-14T23:46:43.052Z,101448.78
2018-04-14T23:49:09.781Z,101443.07
2018-04-14T23:51:37.381Z,101447.49
2018-04-14T23:54:04.036Z,101443.86
2018-04-14T23:56:30.786Z,101442.69
2018-04-14T23:58:57.559Z,101437.72
